Time;durP1;ratioP1;P1;durP2;ratioP2;P2;SDS_P1;SDS_P2;PMS_P1;PMS_P2;Temp;Humidity;BMP_temperature;BMP_pressure;BME280_temperature;BME280_humidity;BME280_pressure;Samples;Min_cycle;Max_cycle;Signal;HPM_P1;HPM_P2
2021/03/12 00:06:01;;;;;;;3.37;0.60;;;6.70;99.90;;;;;;6730017;88;20266;-78
2021/03/12 00:16:03;;;;;;;6.22;0.57;;;6.70;99.90;;;;;;6682493;89;20199;-79
2021/03/12 00:26:04;;;;;;;0.70;0.30;;;6.70;99.90;;;;;;6695620;88;21274;-79
2021/03/12 00:36:06;;;;;;;6.22;0.60;;;6.60;99.90;;;;;;6701730;88;20191;-78
2021/03/12 00:46:09;;;;;;;2.92;0.62;;;6.70;99.90;;;;;;6708369;89;20206;-78
2021/03/12 00:56:09;;;;;;;2.25;0.62;;;6.80;99.90;;;;;;6700579;78;20268;-77
2021/03/12 01:06:10;;;;;;;6.50;0.77;;;6.80;99.90;;;;;;6717059;88;20222;-77
2021/03/12 01:16:11;;;;;;;3.97;0.68;;;6.90;99.90;;;;;;6714863;88;20224;-79
2021/03/12 01:26:12;;;;;;;3.97;0.70;;;6.80;99.90;;;;;;6721485;88;20202;-77
2021/03/12 01:36:12;;;;;;;7.20;1.02;;;6.70;99.90;;;;;;6717696;88;21008;-77
2021/03/12 01:46:13;;;;;;;5.82;0.75;;;6.50;99.90;;;;;;6719456;88;20508;-77
2021/03/12 01:56:13;;;;;;;6.93;0.85;;;6.30;99.90;;;;;;6718994;88;20210;-78
2021/03/12 02:06:14;;;;;;;3.00;0.80;;;6.40;99.90;;;;;;6718350;88;20237;-78
2021/03/12 02:16:39;;;;;;;5.35;0.98;;;6.40;99.90;;;;;;6717763;88;20200;-77
2021/03/12 02:26:42;;;;;;;6.93;1.00;;;6.10;99.90;;;;;;6717460;88;20887;-76
2021/03/12 02:36:49;;;;;;;4.82;1.00;;;6.10;99.90;;;;;;6717771;88;20270;-77
2021/03/12 02:46:55;;;;;;;6.47;0.80;;;5.90;99.90;;;;;;6719723;88;20205;-77
2021/03/12 02:56:56;;;;;;;5.43;1.07;;;6.00;99.90;;;;;;6713576;88;20836;-77
2021/03/12 03:06:57;;;;;;;7.12;1.25;;;6.30;99.90;;;;;;6718480;88;20340;-77
2021/03/12 03:17:00;;;;;;;7.22;1.48;;;6.30;99.90;;;;;;6718918;88;21241;-77
2021/03/12 03:27:01;;;;;;;7.75;1.05;;;6.20;99.90;;;;;;6722366;88;20192;-78
2021/03/12 03:37:02;;;;;;;6.53;1.25;;;6.20;99.90;;;;;;6721429;88;20978;-77
2021/03/12 03:47:04;;;;;;;8.02;0.90;;;6.30;99.90;;;;;;6706680;88;20628;-78
2021/03/12 03:57:06;;;;;;;4.93;0.90;;;6.30;99.90;;;;;;6701319;88;20205;-78
2021/03/12 04:07:07;;;;;;;5.45;0.85;;;6.20;99.90;;;;;;6698102;88;20219;-76
2021/03/12 04:17:09;;;;;;;5.43;1.10;;;6.30;99.90;;;;;;6701482;88;20209;-77
2021/03/12 04:27:11;;;;;;;6.03;1.17;;;6.40;99.90;;;;;;6695790;88;20805;-77
2021/03/12 04:37:12;;;;;;;3.83;0.70;;;6.40;99.90;;;;;;6702912;88;20202;-78
2021/03/12 04:47:13;;;;;;;4.25;0.80;;;6.10;99.90;;;;;;6708889;88;20191;-77
2021/03/12 04:57:15;;;;;;;7.62;0.93;;;6.20;99.90;;;;;;6701701;88;20357;-76
2021/03/12 05:07:19;;;;;;;4.60;0.75;;;6.20;99.90;;;;;;6700389;88;20240;-78
2021/03/12 05:17:22;;;;;;;5.12;0.90;;;6.30;99.90;;;;;;6698658;88;20612;-77
2021/03/12 05:27:22;;;;;;;5.37;0.77;;;6.30;99.90;;;;;;6700034;88;20202;-77
2021/03/12 05:37:23;;;;;;;5.45;0.70;;;6.40;99.90;;;;;;6700010;88;20232;-77
2021/03/12 05:47:23;;;;;;;8.90;0.90;;;6.40;99.90;;;;;;6700033;88;20207;-76
2021/03/12 05:57:24;;;;;;;4.97;0.80;;;6.40;99.90;;;;;;6700473;88;20193;-76
2021/03/12 06:07:25;;;;;;;5.97;0.80;;;6.40;99.90;;;;;;6702076;88;20256;-77
2021/03/12 06:17:33;;;;;;;11.05;1.98;;;6.30;99.90;;;;;;6700644;88;20653;-77
2021/03/12 06:27:34;;;;;;;6.97;0.95;;;6.20;99.90;;;;;;6699839;88;20213;-77
2021/03/12 06:37:35;;;;;;;5.03;1.00;;;6.20;99.90;;;;;;6708868;88;20205;-77
2021/03/12 06:47:36;;;;;;;4.40;1.10;;;6.20;99.90;;;;;;6716798;88;20521;-79
2021/03/12 06:57:37;;;;;;;7.55;1.10;;;6.30;99.90;;;;;;6724436;88;20936;-78
2021/03/12 07:07:40;;;;;;;6.65;0.93;;;6.40;99.90;;;;;;6726922;88;20642;-78
2021/03/12 07:17:41;;;;;;;5.03;1.02;;;6.50;99.90;;;;;;6715292;88;20186;-81
2021/03/12 07:27:46;;;;;;;6.37;0.85;;;6.60;99.90;;;;;;6709793;88;20688;-77
2021/03/12 07:37:47;;;;;;;3.60;0.88;;;6.70;99.90;;;;;;6716570;88;20194;-77
2021/03/12 07:47:48;;;;;;;6.93;1.30;;;6.90;99.90;;;;;;6712990;88;20230;-76
2021/03/12 07:57:49;;;;;;;6.55;1.45;;;7.00;99.90;;;;;;6710434;88;20303;-77
2021/03/12 08:07:49;;;;;;;5.68;0.93;;;7.20;99.90;;;;;;6715020;88;20205;-77
2021/03/12 08:17:56;;;;;;;4.35;0.80;;;7.40;99.90;;;;;;6717328;88;20209;-76
2021/03/12 08:27:57;;;;;;;7.57;1.08;;;7.50;99.90;;;;;;6713336;88;20212;-77
2021/03/12 08:38:03;;;;;;;5.82;0.95;;;8.10;99.90;;;;;;6710201;88;20234;-76
2021/03/12 08:48:09;;;;;;;5.30;0.80;;;8.50;99.90;;;;;;6706398;88;20228;-76
2021/03/12 08:58:10;;;;;;;5.90;0.97;;;8.40;99.90;;;;;;6711805;88;20312;-76
2021/03/12 09:08:13;;;;;;;7.12;1.20;;;8.30;99.90;;;;;;6713089;88;20190;-76
2021/03/12 09:18:16;;;;;;;5.05;1.00;;;8.60;99.90;;;;;;6720574;88;20182;-76
2021/03/12 09:28:17;;;;;;;6.70;1.08;;;9.20;99.90;;;;;;6721124;88;20222;-76
2021/03/12 09:38:28;;;;;;;6.72;1.33;;;8.90;99.90;;;;;;6712737;88;20331;-76
2021/03/12 09:48:31;;;;;;;5.65;0.88;;;8.90;99.90;;;;;;6714105;88;20208;-76
2021/03/12 09:58:32;;;;;;;4.35;0.75;;;9.10;99.90;;;;;;6712032;88;20182;-76
2021/03/12 10:08:32;;;;;;;6.72;0.82;;;9.60;99.90;;;;;;6714524;88;20227;-76
2021/03/12 10:18:33;;;;;;;7.20;1.08;;;9.70;99.70;;;;;;6716947;88;20282;-76
2021/03/12 10:28:34;;;;;;;5.80;1.20;;;11.10;96.20;;;;;;6711674;88;21059;-76
2021/03/12 10:38:35;;;;;;;3.70;0.90;;;10.70;94.60;;;;;;6707630;88;20218;-76
2021/03/12 10:48:44;;;;;;;5.12;0.80;;;10.40;94.50;;;;;;6708843;88;20222;-76
2021/03/12 10:58:45;;;;;;;5.65;0.90;;;10.50;95.40;;;;;;6711053;88;20662;-77
2021/03/12 11:08:46;;;;;;;4.65;0.88;;;11.00;94.90;;;;;;6703822;88;20187;-77
2021/03/12 11:18:46;;;;;;;4.68;0.80;;;11.80;92.30;;;;;;6709189;88;20267;-76
2021/03/12 11:28:47;;;;;;;5.32;0.70;;;12.00;91.10;;;;;;6709008;88;20680;-77
2021/03/12 11:38:48;;;;;;;4.60;0.80;;;12.30;89.90;;;;;;6704148;88;20222;-76
2021/03/12 11:48:49;;;;;;;2.72;0.77;;;12.30;87.20;;;;;;6711306;88;20183;-75
2021/03/12 11:58:51;;;;;;;2.90;0.75;;;12.10;86.10;;;;;;6716956;88;20218;-77
2021/03/12 12:08:51;;;;;;;4.15;1.00;;;12.20;85.00;;;;;;6711612;88;20214;-77
2021/03/12 12:18:52;;;;;;;5.22;0.75;;;12.70;83.50;;;;;;6713858;88;20207;-77
2021/03/12 12:28:53;;;;;;;5.68;0.80;;;12.00;85.20;;;;;;6714015;88;20228;-76
2021/03/12 12:38:53;;;;;;;6.18;1.10;;;13.30;81.10;;;;;;6712853;88;20187;-77
2021/03/12 12:48:54;;;;;;;6.00;0.95;;;13.60;81.30;;;;;;6709768;88;20218;-76
2021/03/12 12:58:55;;;;;;;4.43;0.88;;;12.40;83.70;;;;;;6711482;88;20212;-76
2021/03/12 13:08:55;;;;;;;4.22;0.85;;;12.00;86.00;;;;;;6708504;88;20194;-76
2021/03/12 13:18:57;;;;;;;4.45;0.90;;;12.40;85.00;;;;;;6709909;88;20763;-76
2021/03/12 13:28:58;;;;;;;8.10;0.70;;;12.50;83.30;;;;;;6710652;88;20825;-77
2021/03/12 13:38:58;;;;;;;6.22;1.08;;;12.00;84.20;;;;;;6708452;88;20194;-76
2021/03/12 13:48:59;;;;;;;3.28;0.70;;;11.60;86.40;;;;;;6714577;88;20178;-76
2021/03/12 13:58:59;;;;;;;5.47;1.08;;;11.90;86.00;;;;;;6710228;88;20371;-76
2021/03/12 14:09:00;;;;;;;5.78;1.00;;;11.70;87.20;;;;;;6711226;88;20607;-76
2021/03/12 14:19:02;;;;;;;5.18;0.77;;;11.50;88.70;;;;;;6710712;88;20236;-75
2021/03/12 14:29:05;;;;;;;6.68;1.00;;;11.60;89.50;;;;;;6719480;88;20232;-77
2021/03/12 14:39:08;;;;;;;4.07;0.85;;;11.40;90.50;;;;;;6715650;88;20193;-76
2021/03/12 14:49:08;;;;;;;3.72;1.23;;;11.60;91.40;;;;;;6707949;88;20863;-76
2021/03/12 14:59:09;;;;;;;5.67;1.13;;;11.70;92.30;;;;;;6714503;88;20281;-76
2021/03/12 15:09:09;;;;;;;6.43;1.20;;;11.10;93.80;;;;;;6703325;88;20578;-76
2021/03/12 15:19:10;;;;;;;5.10;0.80;;;11.10;95.60;;;;;;6710312;88;20643;-77
2021/03/12 15:29:11;;;;;;;7.03;1.30;;;11.00;94.90;;;;;;6718525;88;20545;-77
2021/03/12 15:39:11;;;;;;;4.45;1.25;;;10.90;94.90;;;;;;6690396;88;20212;-74
2021/03/12 15:49:12;;;;;;;6.60;1.30;;;10.80;95.00;;;;;;6706658;88;20257;-75
2021/03/12 15:59:12;;;;;;;9.60;1.25;;;10.90;94.60;;;;;;6707639;88;20922;-75
2021/03/12 16:09:13;;;;;;;4.85;0.90;;;10.80;95.40;;;;;;6707635;88;20356;-75
2021/03/12 16:19:13;;;;;;;3.58;0.80;;;10.30;99.90;;;;;;6708955;88;20489;-76
2021/03/12 16:29:16;;;;;;;3.70;0.90;;;8.70;99.90;;;;;;6708161;88;20710;-76
2021/03/12 16:39:17;;;;;;;6.00;0.90;;;7.30;99.90;;;;;;6710014;88;20216;-75
2021/03/12 16:49:18;;;;;;;6.47;1.07;;;6.90;99.90;;;;;;6716397;88;20232;-77
2021/03/12 16:59:18;;;;;;;5.45;0.98;;;7.00;99.90;;;;;;6716397;88;20640;-77
2021/03/12 17:09:21;;;;;;;3.40;0.50;;;6.90;99.90;;;;;;6722971;88;20249;-74
2021/03/12 17:19:21;;;;;;;2.70;0.60;;;6.50;99.90;;;;;;6700176;88;20759;-75
2021/03/12 17:29:22;;;;;;;2.55;0.80;;;6.30;99.90;;;;;;6702884;88;20261;-74
2021/03/12 17:39:23;;;;;;;1.42;0.43;;;6.30;99.90;;;;;;6705745;88;20681;-74
2021/03/12 17:49:23;;;;;;;1.85;0.30;;;6.00;99.90;;;;;;6707456;88;20206;-75
2021/03/12 17:59:24;;;;;;;1.42;0.30;;;5.90;99.90;;;;;;6705418;88;20222;-76
2021/03/12 18:09:24;;;;;;;0.90;0.37;;;5.90;99.90;;;;;;6709824;88;20649;-76
2021/03/12 18:19:25;;;;;;;1.37;0.40;;;5.90;99.90;;;;;;6724501;88;20183;-76
2021/03/12 18:29:26;;;;;;;0.95;0.30;;;6.00;99.90;;;;;;6719079;88;20704;-75
2021/03/12 18:39:27;;;;;;;1.80;0.40;;;6.10;99.90;;;;;;6702726;88;20335;-75
2021/03/12 18:49:33;;;;;;;2.45;0.50;;;6.10;99.90;;;;;;6702771;88;20522;-74
2021/03/12 18:59:34;;;;;;;3.27;0.50;;;6.30;99.90;;;;;;6700752;88;20186;-74
2021/03/12 19:09:37;;;;;;;1.67;0.60;;;6.30;99.90;;;;;;6699629;88;21111;-75
2021/03/12 19:19:37;;;;;;;1.65;0.62;;;6.40;99.90;;;;;;6700768;88;20720;-75
2021/03/12 19:29:38;;;;;;;2.17;0.75;;;6.20;99.90;;;;;;6703710;88;20191;-75
2021/03/12 19:39:39;;;;;;;1.20;0.50;;;6.30;99.90;;;;;;6703458;88;20237;-74
2021/03/12 19:49:40;;;;;;;2.25;0.62;;;6.30;99.90;;;;;;6732605;88;20289;-76
2021/03/12 19:59:40;;;;;;;1.25;0.60;;;6.40;99.90;;;;;;6709507;88;20187;-75
2021/03/12 20:09:41;;;;;;;5.35;0.90;;;6.30;99.90;;;;;;6701979;88;20194;-75
2021/03/12 20:19:43;;;;;;;2.72;0.80;;;6.20;99.90;;;;;;6702467;88;20198;-75
2021/03/12 20:29:43;;;;;;;2.33;0.52;;;6.30;99.90;;;;;;6707918;88;20198;-75
2021/03/12 20:39:45;;;;;;;4.20;1.00;;;6.20;99.90;;;;;;6706223;88;20212;-76
2021/03/12 20:49:45;;;;;;;1.87;0.65;;;6.30;99.90;;;;;;6709805;88;20229;-76
2021/03/12 20:59:46;;;;;;;3.65;1.10;;;6.30;99.90;;;;;;6719734;88;20720;-76
2021/03/12 21:09:46;;;;;;;4.12;0.85;;;6.40;99.90;;;;;;6721065;88;20191;-75
2021/03/12 21:19:47;;;;;;;4.07;0.90;;;6.40;99.90;;;;;;6709778;88;20199;-76
2021/03/12 21:29:47;;;;;;;3.87;0.98;;;6.50;99.90;;;;;;6699037;88;20245;-75
2021/03/12 21:39:48;;;;;;;3.22;0.90;;;6.80;99.90;;;;;;6699819;88;20270;-75
2021/03/12 21:49:48;;;;;;;4.40;0.85;;;6.90;99.90;;;;;;6704934;88;20199;-75
2021/03/12 21:59:49;;;;;;;3.25;0.90;;;7.00;99.90;;;;;;6702759;88;20213;-75
2021/03/12 22:09:50;;;;;;;1.83;0.70;;;7.20;99.90;;;;;;6702925;88;20682;-74
2021/03/12 22:19:50;;;;;;;2.35;0.70;;;7.30;99.90;;;;;;6703010;88;20726;-75
2021/03/12 22:29:51;;;;;;;4.28;0.70;;;7.30;99.90;;;;;;6706212;88;20185;-75
2021/03/12 22:39:51;;;;;;;1.55;0.60;;;7.30;99.90;;;;;;6704771;88;20346;-75
2021/03/12 22:49:54;;;;;;;3.25;0.80;;;7.30;99.90;;;;;;6707488;88;20214;-75
2021/03/12 22:59:54;;;;;;;4.60;0.90;;;7.10;99.90;;;;;;6718405;88;20154;-78
2021/03/12 23:09:55;;;;;;;3.10;0.90;;;7.10;99.90;;;;;;6727424;88;20238;-77
2021/03/12 23:19:56;;;;;;;4.45;0.65;;;7.10;99.90;;;;;;6728763;88;20198;-77
2021/03/12 23:29:56;;;;;;;3.70;0.68;;;7.20;99.90;;;;;;6722727;88;20186;-77
2021/03/12 23:39:57;;;;;;;2.92;0.70;;;7.20;99.90;;;;;;6728881;88;20210;-78
2021/03/12 23:49:58;;;;;;;5.30;1.05;;;7.30;99.90;;;;;;6728443;88;20209;-78
2021/03/12 23:59:59;;;;;;;3.47;0.88;;;7.20;99.90;;;;;;6732008;88;20255;-79
